Lleida, Spain

7:57 PM CET on November 28, 2014 (GMT +0100)
Pardinyes,Lleida | Change Station
CLOSE
Current Station
Personal Weather Station
Location: Lleida, LLEIDA
Elevation: 557 ft
Nearby Weather Stations
Active Advisory: Wind

Elev 557 ft 41.62 °N, 0.64 °E | Updated 45 seconds ago

Partly Cloudy
Partly Cloudy
59.7 °F
Feels Like 59.7 °F
N
6.0
Wind Variable Wind from East
Gusts 13.0 mph

Today
High -- | Low -- °F
--% Chance of Precip.
Yesterday
High -- | Low -- °F
Precip. -- in
8:01 AM 5:29 PM
Waxing Crescent, 43% visible
Pressure 29.39 in
Visibility 6.2 miles
Clouds Few 3500 ft
Dew Point 56 °F
Humidity 87%
Rainfall 0.71 in
Snow Depth Not available.
UV 0 out of 12
Pollen Not available.
Air Quality Not available.
Flu Activity Not available.
METAR LERS 281830Z 08005KT 050V160 9999 FEW035 17/15 Q0995

More Conditions Fewer Conditions

Pressure 29.39 in
Visibility 6.2 miles
Clouds Few 3500 ft
Dew Point 56 °F
Humidity 87%
Rainfall 0.71 in
Snow Depth Not available.
UV 0 out of 12
Pollen Not available.
Air Quality Not available.
Flu Activity Not available.
METAR LERS 281830Z 08005KT 050V160 9999 FEW035 17/15 Q0995

More Conditions Fewer Conditions

10-Day Weather Forecast

Almanac

Astronomy

Nov. 28, 2014 Rise Set
Actual Time
Civil Twilight
Nautical Twilight
Astronomical Twilight
Moon
Length Of Visible Light
Length of Day
Tomorrow will be .
, % of the Moon is Illuminated

Today's Extremes

Country Highs Country Lows

Community

WunderPhotos

Upload Photos

1,774,257 photos uploaded!

WunderBlogs® & News

Nearby

Air Quality

  Air Quality AQ Index Pollutant
Not available.

Snow Depth

Station Depth Elevation

Earthquake Activity

City Distance Mag. Time & Date
Minimum magnitude displayed is 2.5.

Coastal Water Temperatures

Place Temperature

Nearby Weather Stations